RJNY(METAR)
12/16 16:00
METAR RJNY 160700Z 24013G23KT 9999 FEW025 BKN080 10/M00 Q1011 RMK
1CU025 5AC080 A2987=
戻る
トップページへ戻る
IMOC Co,.Ltd.